Tourist Ferry Boat 3 — IQAQ — position and weather

sailwx.info

Track history (hours):
 
Tides and Currents Weather Stations Pressure Air Temp Water Temp Dewpoint Dewpoint Depression Visibility Wind Speed Wind Dir Waves Ship Positions

Tourist Ferry Boat 3

Last reported at 2016-Jun-28 21:33 UTC. Time now 2016-Jun-29 07:25 UTC.
Position N 40°49' E 014°07'.

Length 58 m; draft 1.8 m.

Type: Ship. MMSI: 247048900.

Date/timePositionNaut miles runAvg speedWind from/ knotsBaromVisibWave heightAir tempDewpointWater temp
2016-Jun-28 21:33N 40°49' E 014°07'0 0.0
2016-Jun-28 20:33N 40°49' E 014°07'0 0.0
2016-Jun-28 19:21N 40°49' E 014°07'0 0.0
2016-Jun-28 18:33N 40°49' E 014°07'0 0.0
2016-Jun-28 17:33N 40°49' E 014°07'0 0.0
2016-Jun-28 16:33N 40°49' E 014°07'0 0.0
2016-Jun-28 15:33N 40°49' E 014°07'0 0.0
2016-Jun-28 14:33N 40°49' E 014°07'0 0.0
2016-Jun-28 13:33N 40°49' E 014°07'0 0.0
2016-Jun-28 12:33N 40°49' E 014°07'0 0.0
2016-Jun-28 11:33N 40°49' E 014°07'0 0.0
2016-Jun-28 10:33N 40°49' E 014°07'0 0.0
2016-Jun-28 09:33N 40°49' E 014°07'0 0.0
2016-Jun-28 08:33N 40°49' E 014°07'0 0.0
2016-Jun-28 07:33N 40°49' E 014°07'0 0.0
2016-Jun-28 06:33N 40°49' E 014°07'0 0.0
2016-Jun-27 16:33N 40°49' E 014°07'7 7.4
2016-Jun-27 15:34N 40°50' E 014°17'5 4.6
2016-Jun-27 14:33N 40°47' E 014°12'9 8.7
2016-Jun-27 13:33N 40°46' E 014°00'5 4.7
2016-Jun-27 12:34N 40°45' E 013°54'0 0.0
2016-Jun-27 11:34N 40°45' E 013°54'4 4.2
2016-Jun-27 10:34N 40°46' E 013°60'6 6.1
2016-Jun-27 09:34N 40°47' E 014°08'7 3.5
2016-Jun-27 07:34N 40°49' E 014°17'7 7.3
2016-Jun-27 06:33N 40°49' E 014°07'1 0.1
2016-Jun-26 18:33N 40°48' E 014°06'9 9.4
2016-Jun-26 17:33N 40°45' E 013°55'5 4.7
2016-Jun-26 16:33N 40°46' E 014°00'6 5.9
2016-Jun-26 15:33N 40°49' E 014°07'8 8.1
2016-Jun-26 14:33N 40°46' E 013°57'1 1.4
2016-Jun-26 13:33N 40°46' E 013°59'7 6.7
2016-Jun-26 12:33N 40°49' E 014°07'2 2.4
2016-Jun-26 11:33N 40°47' E 014°06'9 9.0
2016-Jun-26 10:33N 40°45' E 013°54'7 7.3
2016-Jun-26 09:33N 40°46' E 014°04'4 3.8
2016-Jun-26 08:33N 40°49' E 014°07'4 4.1
2016-Jun-26 07:33N 40°46' E 014°03'7 6.9
2016-Jun-26 06:33N 40°45' E 013°54'4 3.8
2016-Jun-26 05:33N 40°46' E 013°59'7 6.7
2016-Jun-26 04:33N 40°49' E 014°07'2 0.2
2016-Jun-25 18:33N 40°48' E 014°06'9 9.2
2016-Jun-25 17:33N 40°45' E 013°55'4 3.5
2016-Jun-25 16:33N 40°46' E 013°59'7 7.0
2016-Jun-25 15:33N 40°49' E 014°07'7 6.9
2016-Jun-25 14:33N 40°46' E 013°59'0 0.1
2016-Jun-25 13:33N 40°46' E 013°59'7 6.8
2016-Jun-25 12:33N 40°49' E 014°07'3 3.3
2016-Jun-25 11:33N 40°46' E 014°05'8 8.2
2016-Jun-25 10:33N 40°45' E 013°54'8 7.5
2016-Jun-25 09:33N 40°46' E 014°04'4 3.7
2016-Jun-25 08:33N 40°49' E 014°07'4 4.2
2016-Jun-25 07:33N 40°46' E 014°03'7 6.8
2016-Jun-25 06:33N 40°45' E 013°54'4 3.5
2016-Jun-25 05:33N 40°46' E 013°59'7 7.0
2016-Jun-25 04:33N 40°49' E 014°07'1 0.1
2016-Jun-24 18:33N 40°49' E 014°06'9 9.3
2016-Jun-24 17:33N 40°45' E 013°55'5 5.4
2016-Jun-24 16:33N 40°46' E 014°02'5 5.0
2016-Jun-24 15:33N 40°49' E 014°07'7 6.7
2016-Jun-24 14:33N 40°46' E 013°59'0 0.3
2016-Jun-24 13:33N 40°46' E 013°59'7 6.8
2016-Jun-24 12:33N 40°49' E 014°07'3 2.7
2016-Jun-24 11:33N 40°47' E 014°06'9 9.0
2016-Jun-24 10:33N 40°45' E 013°54'7 7.3
2016-Jun-24 09:33N 40°47' E 014°04'4 3.8
2016-Jun-24 08:33N 40°49' E 014°07'4 4.3
2016-Jun-24 07:33N 40°46' E 014°03'  
2016-Jun-21 12:23N 40°49' E 014°07'0 0.0
2016-Jun-21 11:33N 40°49' E 014°07'0 0.0
2016-Jun-21 10:33N 40°49' E 014°07'0 0.0
2016-Jun-21 09:33N 40°49' E 014°07'0 0.0
2016-Jun-20 13:07N 40°49' E 014°07'0 0.0
2016-Jun-20 12:33N 40°49' E 014°07'0 0.0
2016-Jun-20 11:33N 40°49' E 014°07'0 0.0
2016-Jun-20 10:33N 40°49' E 014°07'8 0.4
2016-Jun-19 14:24N 40°46' E 013°57'1 1.7
2016-Jun-19 13:33N 40°46' E 013°59'7 7.0
2016-Jun-19 12:34N 40°49' E 014°07'3 3.4
2016-Jun-19 11:33N 40°46' E 014°05'8 8.2
2016-Jun-19 10:33N 40°45' E 013°54'7 7.2
2016-Jun-19 09:33N 40°46' E 014°04'4 3.9
2016-Jun-19 08:33N 40°49' E 014°07'4 4.1
2016-Jun-19 07:33N 40°46' E 014°03'3 1.5
2016-Jun-19 05:33N 40°46' E 013°59'7 6.7
2016-Jun-19 04:34N 40°49' E 014°07'  
Track history (hours):
 
Tides and Currents Weather Stations Pressure Air Temp Water Temp Dewpoint Dewpoint Depression Visibility Wind Speed Wind Dir Waves Ship Positions

Tourist Ferry Boat 3

Last reported at 2016-Jun-28 21:33 UTC. Time now 2016-Jun-29 07:25 UTC.
Position N 40°49' E 014°07'.

Length 58 m; draft 1.8 m.

Type: Ship. MMSI: 247048900.

Date/timePositionNaut miles runAvg speedWind from/ knotsBaromVisibWave heightAir tempDewpointWater temp
2016-Jun-28 21:33N 40°49' E 014°07'0 0.0
2016-Jun-28 20:33N 40°49' E 014°07'0 0.0
2016-Jun-28 19:21N 40°49' E 014°07'0 0.0
2016-Jun-28 18:33N 40°49' E 014°07'0 0.0
2016-Jun-28 17:33N 40°49' E 014°07'0 0.0
2016-Jun-28 16:33N 40°49' E 014°07'0 0.0
2016-Jun-28 15:33N 40°49' E 014°07'0 0.0
2016-Jun-28 14:33N 40°49' E 014°07'0 0.0
2016-Jun-28 13:33N 40°49' E 014°07'0 0.0
2016-Jun-28 12:33N 40°49' E 014°07'0 0.0
2016-Jun-28 11:33N 40°49' E 014°07'0 0.0
2016-Jun-28 10:33N 40°49' E 014°07'0 0.0
2016-Jun-28 09:33N 40°49' E 014°07'0 0.0
2016-Jun-28 08:33N 40°49' E 014°07'0 0.0
2016-Jun-28 07:33N 40°49' E 014°07'0 0.0
2016-Jun-28 06:33N 40°49' E 014°07'0 0.0
2016-Jun-27 16:33N 40°49' E 014°07'7 7.4
2016-Jun-27 15:34N 40°50' E 014°17'5 4.6
2016-Jun-27 14:33N 40°47' E 014°12'9 8.7
2016-Jun-27 13:33N 40°46' E 014°00'5 4.7
2016-Jun-27 12:34N 40°45' E 013°54'0 0.0
2016-Jun-27 11:34N 40°45' E 013°54'4 4.2
2016-Jun-27 10:34N 40°46' E 013°60'6 6.1
2016-Jun-27 09:34N 40°47' E 014°08'7 3.5
2016-Jun-27 07:34N 40°49' E 014°17'7 7.3
2016-Jun-27 06:33N 40°49' E 014°07'1 0.1
2016-Jun-26 18:33N 40°48' E 014°06'9 9.4
2016-Jun-26 17:33N 40°45' E 013°55'5 4.7
2016-Jun-26 16:33N 40°46' E 014°00'6 5.9
2016-Jun-26 15:33N 40°49' E 014°07'8 8.1
2016-Jun-26 14:33N 40°46' E 013°57'1 1.4
2016-Jun-26 13:33N 40°46' E 013°59'7 6.7
2016-Jun-26 12:33N 40°49' E 014°07'2 2.4
2016-Jun-26 11:33N 40°47' E 014°06'9 9.0
2016-Jun-26 10:33N 40°45' E 013°54'7 7.3
2016-Jun-26 09:33N 40°46' E 014°04'4 3.8
2016-Jun-26 08:33N 40°49' E 014°07'4 4.1
2016-Jun-26 07:33N 40°46' E 014°03'7 6.9
2016-Jun-26 06:33N 40°45' E 013°54'4 3.8
2016-Jun-26 05:33N 40°46' E 013°59'7 6.7
2016-Jun-26 04:33N 40°49' E 014°07'2 0.2
2016-Jun-25 18:33N 40°48' E 014°06'9 9.2
2016-Jun-25 17:33N 40°45' E 013°55'4 3.5
2016-Jun-25 16:33N 40°46' E 013°59'7 7.0
2016-Jun-25 15:33N 40°49' E 014°07'7 6.9
2016-Jun-25 14:33N 40°46' E 013°59'0 0.1
2016-Jun-25 13:33N 40°46' E 013°59'7 6.8
2016-Jun-25 12:33N 40°49' E 014°07'3 3.3
2016-Jun-25 11:33N 40°46' E 014°05'8 8.2
2016-Jun-25 10:33N 40°45' E 013°54'8 7.5
2016-Jun-25 09:33N 40°46' E 014°04'4 3.7
2016-Jun-25 08:33N 40°49' E 014°07'4 4.2
2016-Jun-25 07:33N 40°46' E 014°03'7 6.8
2016-Jun-25 06:33N 40°45' E 013°54'4 3.5
2016-Jun-25 05:33N 40°46' E 013°59'7 7.0
2016-Jun-25 04:33N 40°49' E 014°07'1 0.1
2016-Jun-24 18:33N 40°49' E 014°06'9 9.3
2016-Jun-24 17:33N 40°45' E 013°55'5 5.4
2016-Jun-24 16:33N 40°46' E 014°02'5 5.0
2016-Jun-24 15:33N 40°49' E 014°07'7 6.7
2016-Jun-24 14:33N 40°46' E 013°59'0 0.3
2016-Jun-24 13:33N 40°46' E 013°59'7 6.8
2016-Jun-24 12:33N 40°49' E 014°07'3 2.7
2016-Jun-24 11:33N 40°47' E 014°06'9 9.0
2016-Jun-24 10:33N 40°45' E 013°54'7 7.3
2016-Jun-24 09:33N 40°47' E 014°04'4 3.8
2016-Jun-24 08:33N 40°49' E 014°07'4 4.3
2016-Jun-24 07:33N 40°46' E 014°03'  
2016-Jun-21 12:23N 40°49' E 014°07'0 0.0
2016-Jun-21 11:33N 40°49' E 014°07'0 0.0
2016-Jun-21 10:33N 40°49' E 014°07'0 0.0
2016-Jun-21 09:33N 40°49' E 014°07'0 0.0
2016-Jun-20 13:07N 40°49' E 014°07'0 0.0
2016-Jun-20 12:33N 40°49' E 014°07'0 0.0
2016-Jun-20 11:33N 40°49' E 014°07'0 0.0
2016-Jun-20 10:33N 40°49' E 014°07'8 0.4
2016-Jun-19 14:24N 40°46' E 013°57'1 1.7
2016-Jun-19 13:33N 40°46' E 013°59'7 7.0
2016-Jun-19 12:34N 40°49' E 014°07'3 3.4
2016-Jun-19 11:33N 40°46' E 014°05'8 8.2
2016-Jun-19 10:33N 40°45' E 013°54'7 7.2
2016-Jun-19 09:33N 40°46' E 014°04'4 3.9
2016-Jun-19 08:33N 40°49' E 014°07'4 4.1
2016-Jun-19 07:33N 40°46' E 014°03'3 1.5
2016-Jun-19 05:33N 40°46' E 013°59'7 6.7
2016-Jun-19 04:34N 40°49' E 014°07'  

Dump ship's entire track history